sensor_id;sensor_type;location;lat;lon;timestamp;P1;durP1;ratioP1;P2;durP2;ratioP2
7485;SDS011;3784;54.098;9.998;2022-10-19T00:00:30;8.60;;;2.17;;
7485;SDS011;3784;54.098;9.998;2022-10-19T00:02:56;4.87;;;1.87;;
7485;SDS011;3784;54.098;9.998;2022-10-19T00:05:23;4.87;;;1.80;;
7485;SDS011;3784;54.098;9.998;2022-10-19T00:07:49;5.03;;;1.87;;
7485;SDS011;3784;54.098;9.998;2022-10-19T00:10:16;8.43;;;2.03;;
7485;SDS011;3784;54.098;9.998;2022-10-19T00:12:42;7.27;;;2.20;;
7485;SDS011;3784;54.098;9.998;2022-10-19T00:15:09;7.67;;;1.97;;
7485;SDS011;3784;54.098;9.998;2022-10-19T00:17:35;7.73;;;1.90;;
7485;SDS011;3784;54.098;9.998;2022-10-19T00:20:02;10.23;;;1.97;;
7485;SDS011;3784;54.098;9.998;2022-10-19T00:22:29;5.23;;;1.93;;
7485;SDS011;3784;54.098;9.998;2022-10-19T00:24:56;5.53;;;2.00;;
7485;SDS011;3784;54.098;9.998;2022-10-19T00:27:22;5.50;;;2.07;;
7485;SDS011;3784;54.098;9.998;2022-10-19T00:29:49;8.43;;;1.87;;
7485;SDS011;3784;54.098;9.998;2022-10-19T00:32:15;7.90;;;2.00;;
7485;SDS011;3784;54.098;9.998;2022-10-19T00:34:42;7.63;;;2.10;;
7485;SDS011;3784;54.098;9.998;2022-10-19T00:37:08;10.33;;;2.40;;
7485;SDS011;3784;54.098;9.998;2022-10-19T00:39:35;7.13;;;2.20;;
7485;SDS011;3784;54.098;9.998;2022-10-19T00:42:01;5.10;;;2.00;;
7485;SDS011;3784;54.098;9.998;2022-10-19T00:47:01;6.50;;;1.80;;
7485;SDS011;3784;54.098;9.998;2022-10-19T00:49:31;3.43;;;1.37;;
7485;SDS011;3784;54.098;9.998;2022-10-19T00:52:11;8.17;;;2.00;;
7485;SDS011;3784;54.098;9.998;2022-10-19T00:54:39;7.03;;;2.40;;
7485;SDS011;3784;54.098;9.998;2022-10-19T00:57:07;5.43;;;2.03;;
7485;SDS011;3784;54.098;9.998;2022-10-19T00:59:34;7.60;;;1.90;;
7485;SDS011;3784;54.098;9.998;2022-10-19T01:02:03;6.27;;;2.10;;
7485;SDS011;3784;54.098;9.998;2022-10-19T01:04:31;10.70;;;2.27;;
7485;SDS011;3784;54.098;9.998;2022-10-19T01:06:59;8.20;;;2.43;;
7485;SDS011;3784;54.098;9.998;2022-10-19T01:09:27;7.33;;;2.30;;
7485;SDS011;3784;54.098;9.998;2022-10-19T01:34:08;6.37;;;1.97;;
7485;SDS011;3784;54.098;9.998;2022-10-19T01:39:12;9.30;;;2.00;;
7485;SDS011;3784;54.098;9.998;2022-10-19T01:41:47;7.27;;;2.07;;
7485;SDS011;3784;54.098;9.998;2022-10-19T01:44:16;6.90;;;1.93;;
7485;SDS011;3784;54.098;9.998;2022-10-19T01:46:49;9.17;;;2.33;;
7485;SDS011;3784;54.098;9.998;2022-10-19T01:49:21;9.73;;;2.20;;
7485;SDS011;3784;54.098;9.998;2022-10-19T01:51:53;5.70;;;1.70;;
7485;SDS011;3784;54.098;9.998;2022-10-19T01:54:24;7.53;;;2.00;;
7485;SDS011;3784;54.098;9.998;2022-10-19T01:56:52;5.80;;;2.47;;
7485;SDS011;3784;54.098;9.998;2022-10-19T01:59:20;8.23;;;2.00;;
7485;SDS011;3784;54.098;9.998;2022-10-19T02:01:47;9.23;;;2.00;;
7485;SDS011;3784;54.098;9.998;2022-10-19T02:04:16;7.50;;;2.17;;
7485;SDS011;3784;54.098;9.998;2022-10-19T02:06:44;6.27;;;2.10;;
7485;SDS011;3784;54.098;9.998;2022-10-19T02:09:11;5.63;;;1.87;;
7485;SDS011;3784;54.098;9.998;2022-10-19T02:11:44;5.73;;;1.90;;
7485;SDS011;3784;54.098;9.998;2022-10-19T02:14:17;6.07;;;1.90;;
7485;SDS011;3784;54.098;9.998;2022-10-19T02:16:56;4.70;;;1.60;;
7485;SDS011;3784;54.098;9.998;2022-10-19T02:19:25;6.47;;;1.80;;
7485;SDS011;3784;54.098;9.998;2022-10-19T02:21:51;6.30;;;2.37;;
7485;SDS011;3784;54.098;9.998;2022-10-19T02:24:19;5.47;;;2.00;;
7485;SDS011;3784;54.098;9.998;2022-10-19T02:26:45;6.70;;;2.33;;
7485;SDS011;3784;54.098;9.998;2022-10-19T02:29:12;6.57;;;1.87;;
7485;SDS011;3784;54.098;9.998;2022-10-19T02:31:40;10.80;;;2.40;;
7485;SDS011;3784;54.098;9.998;2022-10-19T02:34:07;9.47;;;2.43;;
7485;SDS011;3784;54.098;9.998;2022-10-19T02:36:34;8.47;;;2.33;;
7485;SDS011;3784;54.098;9.998;2022-10-19T02:39:00;9.03;;;2.80;;
7485;SDS011;3784;54.098;9.998;2022-10-19T02:41:38;6.40;;;1.83;;
7485;SDS011;3784;54.098;9.998;2022-10-19T02:44:25;8.27;;;2.17;;
7485;SDS011;3784;54.098;9.998;2022-10-19T02:47:14;8.73;;;2.30;;
7485;SDS011;3784;54.098;9.998;2022-10-19T02:49:43;8.20;;;2.10;;
7485;SDS011;3784;54.098;9.998;2022-10-19T02:52:11;7.57;;;2.30;;
7485;SDS011;3784;54.098;9.998;2022-10-19T02:54:39;7.23;;;1.87;;
7485;SDS011;3784;54.098;9.998;2022-10-19T02:57:19;11.57;;;2.60;;
7485;SDS011;3784;54.098;9.998;2022-10-19T02:59:47;10.07;;;2.10;;
7485;SDS011;3784;54.098;9.998;2022-10-19T03:02:14;7.80;;;2.57;;
7485;SDS011;3784;54.098;9.998;2022-10-19T03:04:41;8.37;;;2.47;;
7485;SDS011;3784;54.098;9.998;2022-10-19T03:07:13;8.80;;;2.90;;
7485;SDS011;3784;54.098;9.998;2022-10-19T03:09:41;6.67;;;2.43;;
7485;SDS011;3784;54.098;9.998;2022-10-19T03:12:08;10.27;;;2.37;;
7485;SDS011;3784;54.098;9.998;2022-10-19T03:14:34;6.80;;;2.43;;
7485;SDS011;3784;54.098;9.998;2022-10-19T03:17:01;9.67;;;2.80;;
7485;SDS011;3784;54.098;9.998;2022-10-19T03:19:28;8.33;;;2.13;;
7485;SDS011;3784;54.098;9.998;2022-10-19T03:21:54;9.47;;;2.50;;
7485;SDS011;3784;54.098;9.998;2022-10-19T03:24:21;10.70;;;2.67;;
7485;SDS011;3784;54.098;9.998;2022-10-19T03:26:47;10.87;;;3.00;;
7485;SDS011;3784;54.098;9.998;2022-10-19T03:29:14;11.30;;;3.00;;
7485;SDS011;3784;54.098;9.998;2022-10-19T03:31:40;8.07;;;2.53;;
7485;SDS011;3784;54.098;9.998;2022-10-19T03:34:07;8.17;;;2.60;;
7485;SDS011;3784;54.098;9.998;2022-10-19T03:36:34;9.83;;;2.60;;
7485;SDS011;3784;54.098;9.998;2022-10-19T03:39:07;16.00;;;3.20;;
7485;SDS011;3784;54.098;9.998;2022-10-19T03:41:36;10.07;;;2.60;;
7485;SDS011;3784;54.098;9.998;2022-10-19T03:44:03;9.20;;;2.70;;
7485;SDS011;3784;54.098;9.998;2022-10-19T03:46:30;8.30;;;2.60;;
7485;SDS011;3784;54.098;9.998;2022-10-19T03:48:57;9.43;;;2.67;;
7485;SDS011;3784;54.098;9.998;2022-10-19T03:51:25;12.83;;;2.90;;
7485;SDS011;3784;54.098;9.998;2022-10-19T03:53:53;10.90;;;3.00;;
7485;SDS011;3784;54.098;9.998;2022-10-19T03:56:21;14.53;;;2.90;;
7485;SDS011;3784;54.098;9.998;2022-10-19T03:58:50;9.70;;;3.20;;
7485;SDS011;3784;54.098;9.998;2022-10-19T04:01:19;12.50;;;3.13;;
7485;SDS011;3784;54.098;9.998;2022-10-19T04:03:51;12.07;;;3.60;;
7485;SDS011;3784;54.098;9.998;2022-10-19T04:06:18;11.03;;;3.50;;
7485;SDS011;3784;54.098;9.998;2022-10-19T04:08:47;10.10;;;3.17;;
7485;SDS011;3784;54.098;9.998;2022-10-19T04:11:14;14.87;;;3.87;;
7485;SDS011;3784;54.098;9.998;2022-10-19T04:13:42;13.30;;;3.07;;
7485;SDS011;3784;54.098;9.998;2022-10-19T04:16:08;8.73;;;3.10;;
7485;SDS011;3784;54.098;9.998;2022-10-19T04:18:38;11.60;;;3.30;;
7485;SDS011;3784;54.098;9.998;2022-10-19T04:21:05;11.07;;;2.80;;
7485;SDS011;3784;54.098;9.998;2022-10-19T04:23:32;12.60;;;2.67;;
7485;SDS011;3784;54.098;9.998;2022-10-19T04:26:01;9.57;;;2.83;;
7485;SDS011;3784;54.098;9.998;2022-10-19T04:28:29;13.60;;;3.00;;
7485;SDS011;3784;54.098;9.998;2022-10-19T04:30:56;12.57;;;2.97;;
7485;SDS011;3784;54.098;9.998;2022-10-19T04:33:22;12.73;;;3.17;;
7485;SDS011;3784;54.098;9.998;2022-10-19T04:35:49;14.10;;;3.33;;
7485;SDS011;3784;54.098;9.998;2022-10-19T04:38:15;14.17;;;3.57;;
7485;SDS011;3784;54.098;9.998;2022-10-19T04:40:42;10.90;;;3.00;;
7485;SDS011;3784;54.098;9.998;2022-10-19T04:43:08;9.60;;;3.13;;
7485;SDS011;3784;54.098;9.998;2022-10-19T04:45:34;11.43;;;3.27;;
7485;SDS011;3784;54.098;9.998;2022-10-19T04:48:01;10.63;;;2.93;;
7485;SDS011;3784;54.098;9.998;2022-10-19T04:50:27;10.33;;;3.10;;
7485;SDS011;3784;54.098;9.998;2022-10-19T04:52:54;17.47;;;2.80;;
7485;SDS011;3784;54.098;9.998;2022-10-19T04:55:20;9.80;;;2.90;;
7485;SDS011;3784;54.098;9.998;2022-10-19T04:57:47;15.43;;;3.27;;
7485;SDS011;3784;54.098;9.998;2022-10-19T05:00:13;11.80;;;3.30;;
7485;SDS011;3784;54.098;9.998;2022-10-19T05:02:43;11.50;;;3.10;;
7485;SDS011;3784;54.098;9.998;2022-10-19T05:05:14;14.00;;;3.43;;
7485;SDS011;3784;54.098;9.998;2022-10-19T05:07:41;9.60;;;3.10;;
7485;SDS011;3784;54.098;9.998;2022-10-19T05:10:07;13.33;;;3.80;;
7485;SDS011;3784;54.098;9.998;2022-10-19T05:12:34;11.23;;;3.53;;
7485;SDS011;3784;54.098;9.998;2022-10-19T05:15:01;14.03;;;3.53;;
7485;SDS011;3784;54.098;9.998;2022-10-19T05:17:29;13.33;;;3.47;;
7485;SDS011;3784;54.098;9.998;2022-10-19T05:19:57;11.17;;;3.47;;
7485;SDS011;3784;54.098;9.998;2022-10-19T05:22:24;17.03;;;3.83;;
7485;SDS011;3784;54.098;9.998;2022-10-19T05:24:50;13.13;;;3.93;;
7485;SDS011;3784;54.098;9.998;2022-10-19T05:27:23;14.27;;;3.40;;
7485;SDS011;3784;54.098;9.998;2022-10-19T05:29:49;15.77;;;4.17;;
7485;SDS011;3784;54.098;9.998;2022-10-19T05:32:16;7.80;;;3.20;;
7485;SDS011;3784;54.098;9.998;2022-10-19T05:34:42;13.43;;;4.17;;
7485;SDS011;3784;54.098;9.998;2022-10-19T05:37:08;13.90;;;3.30;;
7485;SDS011;3784;54.098;9.998;2022-10-19T05:39:35;15.43;;;3.77;;
7485;SDS011;3784;54.098;9.998;2022-10-19T05:42:02;16.17;;;3.60;;
7485;SDS011;3784;54.098;9.998;2022-10-19T05:44:28;17.43;;;3.77;;
7485;SDS011;3784;54.098;9.998;2022-10-19T05:46:55;11.60;;;3.80;;
7485;SDS011;3784;54.098;9.998;2022-10-19T05:49:21;15.70;;;3.73;;
7485;SDS011;3784;54.098;9.998;2022-10-19T05:51:48;13.43;;;3.97;;
7485;SDS011;3784;54.098;9.998;2022-10-19T05:54:15;15.67;;;4.10;;
7485;SDS011;3784;54.098;9.998;2022-10-19T05:56:42;19.00;;;4.07;;
7485;SDS011;3784;54.098;9.998;2022-10-19T05:59:09;11.30;;;3.03;;
7485;SDS011;3784;54.098;9.998;2022-10-19T06:01:39;11.67;;;3.37;;
7485;SDS011;3784;54.098;9.998;2022-10-19T06:04:06;14.13;;;3.57;;
7485;SDS011;3784;54.098;9.998;2022-10-19T06:06:33;11.33;;;3.77;;
7485;SDS011;3784;54.098;9.998;2022-10-19T06:08:59;10.97;;;3.43;;
7485;SDS011;3784;54.098;9.998;2022-10-19T06:11:33;12.70;;;3.53;;
7485;SDS011;3784;54.098;9.998;2022-10-19T06:14:02;12.97;;;4.00;;
7485;SDS011;3784;54.098;9.998;2022-10-19T06:16:30;12.30;;;3.97;;
7485;SDS011;3784;54.098;9.998;2022-10-19T06:18:57;11.93;;;3.90;;
7485;SDS011;3784;54.098;9.998;2022-10-19T06:21:25;14.50;;;3.97;;
7485;SDS011;3784;54.098;9.998;2022-10-19T06:23:54;14.60;;;3.90;;
7485;SDS011;3784;54.098;9.998;2022-10-19T06:26:22;15.17;;;4.30;;
7485;SDS011;3784;54.098;9.998;2022-10-19T06:28:53;13.73;;;4.30;;
7485;SDS011;3784;54.098;9.998;2022-10-19T06:31:20;29.90;;;5.83;;
7485;SDS011;3784;54.098;9.998;2022-10-19T06:33:47;23.10;;;4.67;;
7485;SDS011;3784;54.098;9.998;2022-10-19T06:36:21;17.83;;;4.60;;
7485;SDS011;3784;54.098;9.998;2022-10-19T06:38:49;15.47;;;3.80;;
7485;SDS011;3784;54.098;9.998;2022-10-19T06:41:16;12.83;;;3.27;;
7485;SDS011;3784;54.098;9.998;2022-10-19T06:43:42;16.93;;;3.97;;
7485;SDS011;3784;54.098;9.998;2022-10-19T06:46:10;13.80;;;3.77;;
7485;SDS011;3784;54.098;9.998;2022-10-19T06:48:40;8.57;;;2.90;;
7485;SDS011;3784;54.098;9.998;2022-10-19T06:51:07;14.60;;;3.50;;
7485;SDS011;3784;54.098;9.998;2022-10-19T06:53:34;17.40;;;4.13;;
7485;SDS011;3784;54.098;9.998;2022-10-19T06:56:02;14.23;;;3.37;;
7485;SDS011;3784;54.098;9.998;2022-10-19T06:58:30;15.60;;;3.97;;
7485;SDS011;3784;54.098;9.998;2022-10-19T07:01:00;18.27;;;4.03;;
7485;SDS011;3784;54.098;9.998;2022-10-19T07:03:27;15.87;;;3.47;;
7485;SDS011;3784;54.098;9.998;2022-10-19T07:05:55;11.83;;;3.40;;
7485;SDS011;3784;54.098;9.998;2022-10-19T07:08:23;16.37;;;3.50;;
7485;SDS011;3784;54.098;9.998;2022-10-19T07:10:58;16.60;;;3.83;;
7485;SDS011;3784;54.098;9.998;2022-10-19T07:13:26;10.63;;;3.40;;
7485;SDS011;3784;54.098;9.998;2022-10-19T07:16:01;12.37;;;3.87;;
7485;SDS011;3784;54.098;9.998;2022-10-19T07:18:31;10.93;;;3.10;;
7485;SDS011;3784;54.098;9.998;2022-10-19T07:20:59;15.37;;;3.40;;
7485;SDS011;3784;54.098;9.998;2022-10-19T07:23:27;11.07;;;3.37;;
7485;SDS011;3784;54.098;9.998;2022-10-19T07:25:55;9.23;;;2.87;;
7485;SDS011;3784;54.098;9.998;2022-10-19T07:28:27;10.47;;;2.93;;
7485;SDS011;3784;54.098;9.998;2022-10-19T07:30:54;11.03;;;3.10;;
7485;SDS011;3784;54.098;9.998;2022-10-19T07:33:21;9.70;;;2.87;;
7485;SDS011;3784;54.098;9.998;2022-10-19T07:35:48;9.90;;;2.83;;
7485;SDS011;3784;54.098;9.998;2022-10-19T07:38:14;9.77;;;2.87;;
7485;SDS011;3784;54.098;9.998;2022-10-19T07:40:41;7.03;;;2.30;;
7485;SDS011;3784;54.098;9.998;2022-10-19T07:43:12;7.60;;;2.20;;
7485;SDS011;3784;54.098;9.998;2022-10-19T07:45:39;12.07;;;3.47;;
7485;SDS011;3784;54.098;9.998;2022-10-19T07:48:05;7.87;;;2.10;;
7485;SDS011;3784;54.098;9.998;2022-10-19T07:50:32;9.53;;;2.83;;
7485;SDS011;3784;54.098;9.998;2022-10-19T07:52:58;5.90;;;2.50;;
7485;SDS011;3784;54.098;9.998;2022-10-19T07:55:25;9.80;;;2.53;;
7485;SDS011;3784;54.098;9.998;2022-10-19T07:57:51;8.70;;;2.40;;
7485;SDS011;3784;54.098;9.998;2022-10-19T08:00:18;5.83;;;2.33;;
7485;SDS011;3784;54.098;9.998;2022-10-19T08:02:44;7.27;;;2.67;;
7485;SDS011;3784;54.098;9.998;2022-10-19T08:05:31;7.77;;;2.90;;
7485;SDS011;3784;54.098;9.998;2022-10-19T08:07:58;9.50;;;3.57;;
7485;SDS011;3784;54.098;9.998;2022-10-19T08:10:25;8.30;;;2.37;;
7485;SDS011;3784;54.098;9.998;2022-10-19T08:12:51;7.03;;;2.30;;
7485;SDS011;3784;54.098;9.998;2022-10-19T08:15:18;7.67;;;2.20;;
7485;SDS011;3784;54.098;9.998;2022-10-19T08:17:44;5.73;;;2.43;;
7485;SDS011;3784;54.098;9.998;2022-10-19T08:20:11;6.60;;;2.20;;
7485;SDS011;3784;54.098;9.998;2022-10-19T08:22:37;7.77;;;2.10;;
7485;SDS011;3784;54.098;9.998;2022-10-19T08:25:04;6.13;;;2.00;;
7485;SDS011;3784;54.098;9.998;2022-10-19T08:27:31;5.87;;;2.00;;
7485;SDS011;3784;54.098;9.998;2022-10-19T08:29:58;5.73;;;2.30;;
7485;SDS011;3784;54.098;9.998;2022-10-19T08:32:24;5.80;;;1.97;;
7485;SDS011;3784;54.098;9.998;2022-10-19T08:34:50;8.93;;;2.33;;
7485;SDS011;3784;54.098;9.998;2022-10-19T08:37:17;6.70;;;2.30;;
7485;SDS011;3784;54.098;9.998;2022-10-19T08:40:04;2.23;;;1.53;;
7485;SDS011;3784;54.098;9.998;2022-10-19T08:42:52;5.40;;;2.00;;
7485;SDS011;3784;54.098;9.998;2022-10-19T08:45:20;8.83;;;2.10;;
7485;SDS011;3784;54.098;9.998;2022-10-19T08:47:58;5.33;;;2.03;;
7485;SDS011;3784;54.098;9.998;2022-10-19T08:50:39;7.90;;;2.53;;
7485;SDS011;3784;54.098;9.998;2022-10-19T08:53:12;6.80;;;2.40;;
7485;SDS011;3784;54.098;9.998;2022-10-19T08:58:58;7.27;;;2.33;;
7485;SDS011;3784;54.098;9.998;2022-10-19T09:09:38;5.80;;;1.93;;
7485;SDS011;3784;54.098;9.998;2022-10-19T09:12:08;7.43;;;1.70;;
7485;SDS011;3784;54.098;9.998;2022-10-19T09:14:52;5.43;;;2.53;;
7485;SDS011;3784;54.098;9.998;2022-10-19T09:17:21;4.13;;;2.50;;
7485;SDS011;3784;54.098;9.998;2022-10-19T09:19:50;4.87;;;1.63;;
7485;SDS011;3784;54.098;9.998;2022-10-19T09:24:56;2.87;;;2.10;;
7485;SDS011;3784;54.098;9.998;2022-10-19T09:27:36;5.23;;;1.80;;
7485;SDS011;3784;54.098;9.998;2022-10-19T09:30:21;5.57;;;1.80;;
7485;SDS011;3784;54.098;9.998;2022-10-19T09:32:49;3.30;;;1.80;;
7485;SDS011;3784;54.098;9.998;2022-10-19T09:35:20;4.37;;;1.40;;
7485;SDS011;3784;54.098;9.998;2022-10-19T09:37:50;4.50;;;2.07;;
7485;SDS011;3784;54.098;9.998;2022-10-19T09:40:18;3.27;;;1.43;;
7485;SDS011;3784;54.098;9.998;2022-10-19T09:42:46;3.33;;;1.53;;
7485;SDS011;3784;54.098;9.998;2022-10-19T09:45:18;4.07;;;2.17;;
7485;SDS011;3784;54.098;9.998;2022-10-19T09:47:53;3.60;;;1.30;;
7485;SDS011;3784;54.098;9.998;2022-10-19T09:50:21;2.13;;;1.50;;
7485;SDS011;3784;54.098;9.998;2022-10-19T09:52:54;4.80;;;1.40;;
7485;SDS011;3784;54.098;9.998;2022-10-19T09:55:26;3.53;;;1.60;;
7485;SDS011;3784;54.098;9.998;2022-10-19T09:57:59;2.93;;;1.30;;
7485;SDS011;3784;54.098;9.998;2022-10-19T10:00:37;4.37;;;1.30;;
7485;SDS011;3784;54.098;9.998;2022-10-19T10:03:25;2.90;;;1.33;;
7485;SDS011;3784;54.098;9.998;2022-10-19T10:05:52;3.60;;;1.37;;
7485;SDS011;3784;54.098;9.998;2022-10-19T10:08:21;3.43;;;1.33;;
7485;SDS011;3784;54.098;9.998;2022-10-19T10:10:56;1.90;;;1.40;;
7485;SDS011;3784;54.098;9.998;2022-10-19T10:13:24;3.93;;;1.20;;
7485;SDS011;3784;54.098;9.998;2022-10-19T10:15:59;3.67;;;1.37;;
7485;SDS011;3784;54.098;9.998;2022-10-19T10:18:26;1.93;;;1.20;;
7485;SDS011;3784;54.098;9.998;2022-10-19T10:21:01;3.47;;;1.07;;
7485;SDS011;3784;54.098;9.998;2022-10-19T10:24:04;7.27;;;1.73;;
7485;SDS011;3784;54.098;9.998;2022-10-19T10:26:46;1.93;;;1.10;;
7485;SDS011;3784;54.098;9.998;2022-10-19T10:29:27;2.50;;;1.03;;
7485;SDS011;3784;54.098;9.998;2022-10-19T10:32:15;2.63;;;1.20;;
7485;SDS011;3784;54.098;9.998;2022-10-19T10:34:44;1.70;;;1.10;;
7485;SDS011;3784;54.098;9.998;2022-10-19T10:39:53;1.10;;;1.00;;
7485;SDS011;3784;54.098;9.998;2022-10-19T10:42:28;2.57;;;1.43;;
7485;SDS011;3784;54.098;9.998;2022-10-19T10:44:57;2.03;;;1.60;;
7485;SDS011;3784;54.098;9.998;2022-10-19T10:47:25;3.83;;;3.17;;
7485;SDS011;3784;54.098;9.998;2022-10-19T10:49:53;2.27;;;1.03;;
7485;SDS011;3784;54.098;9.998;2022-10-19T10:52:27;2.07;;;1.20;;
7485;SDS011;3784;54.098;9.998;2022-10-19T10:54:59;2.37;;;1.10;;
7485;SDS011;3784;54.098;9.998;2022-10-19T10:57:32;1.53;;;1.10;;
7485;SDS011;3784;54.098;9.998;2022-10-19T11:00:12;1.50;;;1.10;;
7485;SDS011;3784;54.098;9.998;2022-10-19T11:05:24;1.03;;;0.93;;
7485;SDS011;3784;54.098;9.998;2022-10-19T11:07:53;3.10;;;1.27;;
7485;SDS011;3784;54.098;9.998;2022-10-19T11:10:29;3.83;;;1.60;;
7485;SDS011;3784;54.098;9.998;2022-10-19T11:13:42;1.20;;;1.03;;
7485;SDS011;3784;54.098;9.998;2022-10-19T11:18:51;1.07;;;0.90;;
7485;SDS011;3784;54.098;9.998;2022-10-19T11:21:22;2.67;;;1.10;;
7485;SDS011;3784;54.098;9.998;2022-10-19T11:26:46;2.27;;;1.00;;
7485;SDS011;3784;54.098;9.998;2022-10-19T11:30:22;2.03;;;1.20;;
7485;SDS011;3784;54.098;9.998;2022-10-19T11:32:28;0.93;;;0.90;;
7485;SDS011;3784;54.098;9.998;2022-10-19T11:35:17;2.00;;;0.90;;
7485;SDS011;3784;54.098;9.998;2022-10-19T11:49:14;0.90;;;0.90;;
7485;SDS011;3784;54.098;9.998;2022-10-19T11:57:29;1.13;;;0.70;;
7485;SDS011;3784;54.098;9.998;2022-10-19T12:00:11;1.00;;;0.80;;
7485;SDS011;3784;54.098;9.998;2022-10-19T12:10:56;0.70;;;0.70;;
7485;SDS011;3784;54.098;9.998;2022-10-19T12:13:50;1.83;;;1.30;;
7485;SDS011;3784;54.098;9.998;2022-10-19T12:16:20;1.07;;;0.90;;
7485;SDS011;3784;54.098;9.998;2022-10-19T12:18:47;1.97;;;1.13;;
7485;SDS011;3784;54.098;9.998;2022-10-19T12:21:22;2.23;;;0.97;;
7485;SDS011;3784;54.098;9.998;2022-10-19T12:23:51;0.60;;;0.50;;
7485;SDS011;3784;54.098;9.998;2022-10-19T12:26:19;1.13;;;0.80;;
7485;SDS011;3784;54.098;9.998;2022-10-19T12:28:49;1.40;;;0.80;;
7485;SDS011;3784;54.098;9.998;2022-10-19T12:31:17;0.67;;;0.67;;
7485;SDS011;3784;54.098;9.998;2022-10-19T12:34:05;1.00;;;0.90;;
7485;SDS011;3784;54.098;9.998;2022-10-19T12:36:52;0.80;;;0.67;;
7485;SDS011;3784;54.098;9.998;2022-10-19T12:39:42;1.13;;;0.73;;
7485;SDS011;3784;54.098;9.998;2022-10-19T12:42:28;0.93;;;0.90;;
7485;SDS011;3784;54.098;9.998;2022-10-19T12:53:23;1.30;;;1.00;;
7485;SDS011;3784;54.098;9.998;2022-10-19T12:56:00;0.80;;;0.80;;
7485;SDS011;3784;54.098;9.998;2022-10-19T12:58:30;3.90;;;1.27;;
7485;SDS011;3784;54.098;9.998;2022-10-19T13:01:02;1.27;;;0.90;;
7485;SDS011;3784;54.098;9.998;2022-10-19T13:03:31;0.80;;;0.80;;
7485;SDS011;3784;54.098;9.998;2022-10-19T13:06:04;0.77;;;0.77;;
7485;SDS011;3784;54.098;9.998;2022-10-19T13:08:42;1.57;;;0.80;;
7485;SDS011;3784;54.098;9.998;2022-10-19T13:11:13;0.80;;;0.80;;
7485;SDS011;3784;54.098;9.998;2022-10-19T13:13:57;0.80;;;0.80;;
7485;SDS011;3784;54.098;9.998;2022-10-19T13:16:31;0.77;;;0.77;;
7485;SDS011;3784;54.098;9.998;2022-10-19T13:41:04;1.20;;;0.70;;
7485;SDS011;3784;54.098;9.998;2022-10-19T13:43:33;0.63;;;0.63;;
7485;SDS011;3784;54.098;9.998;2022-10-19T13:48:36;1.70;;;0.80;;
7485;SDS011;3784;54.098;9.998;2022-10-19T13:51:28;0.60;;;0.60;;
7485;SDS011;3784;54.098;9.998;2022-10-19T13:56:51;1.23;;;1.00;;
7485;SDS011;3784;54.098;9.998;2022-10-19T14:05:05;0.70;;;0.70;;
7485;SDS011;3784;54.098;9.998;2022-10-19T14:10:47;1.13;;;0.70;;
7485;SDS011;3784;54.098;9.998;2022-10-19T14:13:26;2.40;;;0.87;;
7485;SDS011;3784;54.098;9.998;2022-10-19T14:15:54;1.47;;;0.83;;
7485;SDS011;3784;54.098;9.998;2022-10-19T14:18:24;1.27;;;1.10;;
7485;SDS011;3784;54.098;9.998;2022-10-19T14:20:57;2.43;;;1.13;;
7485;SDS011;3784;54.098;9.998;2022-10-19T14:23:26;2.10;;;1.00;;
7485;SDS011;3784;54.098;9.998;2022-10-19T14:25:54;2.00;;;1.27;;
7485;SDS011;3784;54.098;9.998;2022-10-19T14:28:23;1.43;;;1.00;;
7485;SDS011;3784;54.098;9.998;2022-10-19T14:31:03;1.90;;;1.10;;
7485;SDS011;3784;54.098;9.998;2022-10-19T14:33:32;2.47;;;1.60;;
7485;SDS011;3784;54.098;9.998;2022-10-19T14:36:01;1.13;;;0.90;;
7485;SDS011;3784;54.098;9.998;2022-10-19T14:38:31;1.53;;;1.40;;
7485;SDS011;3784;54.098;9.998;2022-10-19T14:41:00;1.83;;;1.20;;
7485;SDS011;3784;54.098;9.998;2022-10-19T14:43:28;2.40;;;1.10;;
7485;SDS011;3784;54.098;9.998;2022-10-19T14:48:32;3.00;;;1.40;;
7485;SDS011;3784;54.098;9.998;2022-10-19T14:50:59;1.33;;;1.20;;
7485;SDS011;3784;54.098;9.998;2022-10-19T14:53:34;1.67;;;1.30;;
7485;SDS011;3784;54.098;9.998;2022-10-19T14:56:15;1.40;;;0.90;;
7485;SDS011;3784;54.098;9.998;2022-10-19T14:58:46;1.10;;;1.00;;
7485;SDS011;3784;54.098;9.998;2022-10-19T15:01:15;0.70;;;0.70;;
7485;SDS011;3784;54.098;9.998;2022-10-19T15:03:42;1.50;;;1.10;;
7485;SDS011;3784;54.098;9.998;2022-10-19T15:06:29;1.27;;;1.17;;
7485;SDS011;3784;54.098;9.998;2022-10-19T15:08:58;1.53;;;1.43;;
7485;SDS011;3784;54.098;9.998;2022-10-19T15:11:36;1.50;;;1.20;;
7485;SDS011;3784;54.098;9.998;2022-10-19T15:14:13;1.40;;;1.30;;
7485;SDS011;3784;54.098;9.998;2022-10-19T15:16:43;1.60;;;1.30;;
7485;SDS011;3784;54.098;9.998;2022-10-19T15:19:29;2.57;;;1.50;;
7485;SDS011;3784;54.098;9.998;2022-10-19T15:25:00;1.90;;;1.47;;
7485;SDS011;3784;54.098;9.998;2022-10-19T15:27:36;1.33;;;1.23;;
7485;SDS011;3784;54.098;9.998;2022-10-19T15:30:18;5.00;;;2.07;;
7485;SDS011;3784;54.098;9.998;2022-10-19T15:32:51;1.33;;;1.13;;
7485;SDS011;3784;54.098;9.998;2022-10-19T15:35:33;1.40;;;1.30;;
7485;SDS011;3784;54.098;9.998;2022-10-19T15:38:03;2.13;;;1.40;;
7485;SDS011;3784;54.098;9.998;2022-10-19T15:40:32;3.37;;;1.43;;
7485;SDS011;3784;54.098;9.998;2022-10-19T15:43:00;1.70;;;1.30;;
7485;SDS011;3784;54.098;9.998;2022-10-19T15:51:29;1.30;;;0.90;;
7485;SDS011;3784;54.098;9.998;2022-10-19T15:53:57;3.30;;;1.30;;
7485;SDS011;3784;54.098;9.998;2022-10-19T15:56:25;2.97;;;1.70;;
7485;SDS011;3784;54.098;9.998;2022-10-19T15:58:54;2.87;;;1.70;;
7485;SDS011;3784;54.098;9.998;2022-10-19T16:01:26;3.13;;;2.37;;
7485;SDS011;3784;54.098;9.998;2022-10-19T16:03:54;3.70;;;2.57;;
7485;SDS011;3784;54.098;9.998;2022-10-19T16:06:21;4.00;;;2.60;;
7485;SDS011;3784;54.098;9.998;2022-10-19T16:08:50;3.30;;;3.00;;
7485;SDS011;3784;54.098;9.998;2022-10-19T16:11:20;5.20;;;3.80;;
7485;SDS011;3784;54.098;9.998;2022-10-19T16:13:48;3.60;;;3.30;;
7485;SDS011;3784;54.098;9.998;2022-10-19T16:16:18;4.83;;;2.97;;
7485;SDS011;3784;54.098;9.998;2022-10-19T16:18:48;2.50;;;2.30;;
7485;SDS011;3784;54.098;9.998;2022-10-19T16:21:14;3.93;;;1.70;;
7485;SDS011;3784;54.098;9.998;2022-10-19T16:23:41;2.93;;;1.77;;
7485;SDS011;3784;54.098;9.998;2022-10-19T16:26:09;3.60;;;1.73;;
7485;SDS011;3784;54.098;9.998;2022-10-19T16:28:37;2.87;;;1.37;;
7485;SDS011;3784;54.098;9.998;2022-10-19T16:31:03;3.63;;;1.63;;
7485;SDS011;3784;54.098;9.998;2022-10-19T16:33:30;4.87;;;4.37;;
7485;SDS011;3784;54.098;9.998;2022-10-19T16:35:56;8.83;;;5.53;;
7485;SDS011;3784;54.098;9.998;2022-10-19T16:38:23;6.47;;;5.50;;
7485;SDS011;3784;54.098;9.998;2022-10-19T16:40:49;5.57;;;4.07;;
7485;SDS011;3784;54.098;9.998;2022-10-19T16:43:17;6.60;;;5.97;;
7485;SDS011;3784;54.098;9.998;2022-10-19T16:45:43;4.63;;;4.13;;
7485;SDS011;3784;54.098;9.998;2022-10-19T16:48:10;3.03;;;2.77;;
7485;SDS011;3784;54.098;9.998;2022-10-19T16:50:37;1.90;;;1.80;;
7485;SDS011;3784;54.098;9.998;2022-10-19T16:53:05;3.13;;;2.07;;
7485;SDS011;3784;54.098;9.998;2022-10-19T16:55:36;2.00;;;1.80;;
7485;SDS011;3784;54.098;9.998;2022-10-19T16:58:03;3.77;;;2.00;;
7485;SDS011;3784;54.098;9.998;2022-10-19T17:00:29;2.93;;;1.83;;
7485;SDS011;3784;54.098;9.998;2022-10-19T17:02:56;1.93;;;1.83;;
7485;SDS011;3784;54.098;9.998;2022-10-19T17:05:23;3.50;;;2.67;;
7485;SDS011;3784;54.098;9.998;2022-10-19T17:07:49;4.13;;;3.17;;
7485;SDS011;3784;54.098;9.998;2022-10-19T17:10:16;3.47;;;3.10;;
7485;SDS011;3784;54.098;9.998;2022-10-19T17:12:43;3.40;;;3.10;;
7485;SDS011;3784;54.098;9.998;2022-10-19T17:15:09;3.67;;;2.70;;
7485;SDS011;3784;54.098;9.998;2022-10-19T17:17:56;8.00;;;3.77;;
7485;SDS011;3784;54.098;9.998;2022-10-19T17:20:23;4.20;;;3.80;;
7485;SDS011;3784;54.098;9.998;2022-10-19T17:22:52;4.63;;;4.23;;
7485;SDS011;3784;54.098;9.998;2022-10-19T17:25:19;5.57;;;5.07;;
7485;SDS011;3784;54.098;9.998;2022-10-19T17:27:49;6.63;;;6.13;;
7485;SDS011;3784;54.098;9.998;2022-10-19T17:30:17;6.23;;;5.13;;
7485;SDS011;3784;54.098;9.998;2022-10-19T17:32:44;4.80;;;4.27;;
7485;SDS011;3784;54.098;9.998;2022-10-19T17:35:10;5.83;;;3.47;;
7485;SDS011;3784;54.098;9.998;2022-10-19T17:37:37;3.70;;;3.00;;
7485;SDS011;3784;54.098;9.998;2022-10-19T17:40:03;5.00;;;3.00;;
7485;SDS011;3784;54.098;9.998;2022-10-19T17:42:30;6.40;;;3.50;;
7485;SDS011;3784;54.098;9.998;2022-10-19T17:44:59;7.30;;;3.60;;